Time;durP1;ratioP1;P1;durP2;ratioP2;P2;SDS_P1;SDS_P2;PMS_P1;PMS_P2;Temp;Humidity;BMP_temperature;BMP_pressure;BME280_temperature;BME280_humidity;BME280_pressure;Samples;Min_cycle;Max_cycle;Signal;HPM_P1;HPM_P2
2023/05/19 00:01:16;;;;;;;6.93;4.80;;;9.10;99.90;;;;;;5043182;28;20693;-73
2023/05/19 00:03:54;;;;;;;11.53;4.20;;;9.10;99.90;;;;;;5047825;28;20211;-74
2023/05/19 00:06:26;;;;;;;12.20;5.30;;;9.10;99.90;;;;;;5042974;28;20198;-74
2023/05/19 00:09:04;;;;;;;9.80;4.87;;;9.00;99.90;;;;;;5032028;28;20238;-74
2023/05/19 00:11:32;;;;;;;15.00;5.23;;;9.00;99.90;;;;;;5046598;28;20211;-75
2023/05/19 00:13:59;;;;;;;8.73;4.80;;;9.00;99.90;;;;;;5040844;28;20649;-75
2023/05/19 00:16:30;;;;;;;11.87;4.90;;;8.90;99.90;;;;;;5045420;28;20720;-74
2023/05/19 00:19:01;;;;;;;8.60;4.40;;;9.00;99.90;;;;;;5045889;28;20672;-73
2023/05/19 00:21:29;;;;;;;8.73;4.63;;;8.90;99.90;;;;;;5049474;28;20286;-75
2023/05/19 00:23:56;;;;;;;8.67;5.27;;;8.80;99.90;;;;;;5044285;28;20204;-73
2023/05/19 00:26:25;;;;;;;14.97;5.23;;;8.80;99.90;;;;;;5043012;28;20209;-73
2023/05/19 00:28:53;;;;;;;7.93;5.20;;;8.70;99.90;;;;;;5043942;28;20231;-74
2023/05/19 00:31:20;;;;;;;9.93;5.33;;;8.70;99.90;;;;;;5046998;28;20288;-74
2023/05/19 00:33:46;;;;;;;9.33;4.90;;;8.70;99.90;;;;;;5042121;28;20252;-74
2023/05/19 00:36:13;;;;;;;8.83;4.07;;;8.70;99.90;;;;;;5047672;28;20626;-73
2023/05/19 00:38:40;;;;;;;9.40;4.87;;;8.60;99.90;;;;;;5028801;28;20252;-73
2023/05/19 00:41:07;;;;;;;12.03;5.10;;;8.60;99.90;;;;;;5048011;28;20263;-74
2023/05/19 00:43:33;;;;;;;9.83;5.20;;;8.60;99.90;;;;;;5046580;28;20201;-74
2023/05/19 00:46:01;;;;;;;15.07;5.57;;;8.50;99.90;;;;;;5047470;28;20271;-73
2023/05/19 00:48:28;;;;;;;11.43;5.33;;;8.60;99.90;;;;;;5045556;28;20273;-74
2023/05/19 00:51:00;;;;;;;8.53;4.93;;;8.50;99.90;;;;;;5047953;28;20213;-73
2023/05/19 00:53:28;;;;;;;11.10;4.77;;;8.50;99.90;;;;;;5048447;28;20211;-72
2023/05/19 00:55:55;;;;;;;9.47;4.40;;;8.50;99.90;;;;;;5041994;28;20639;-73
2023/05/19 00:58:24;;;;;;;10.30;5.10;;;8.50;99.90;;;;;;5045246;28;20194;-73
2023/05/19 01:00:51;;;;;;;11.10;5.07;;;8.50;99.90;;;;;;5043406;28;20284;-73
2023/05/19 01:03:19;;;;;;;10.50;5.63;;;8.50;99.90;;;;;;5043387;28;20491;-73
2023/05/19 01:05:52;;;;;;;9.27;5.20;;;8.50;99.90;;;;;;5048962;28;20239;-74
2023/05/19 01:08:19;;;;;;;8.83;5.53;;;8.50;99.90;;;;;;5049035;28;20217;-74
2023/05/19 01:10:46;;;;;;;10.40;4.77;;;8.40;99.90;;;;;;5044409;28;20716;-73
2023/05/19 01:13:13;;;;;;;10.93;4.97;;;8.40;99.90;;;;;;5043305;28;20197;-73
2023/05/19 01:16:11;;;;;;;10.50;4.97;;;8.40;99.90;;;;;;5045198;28;20226;-73
2023/05/19 01:19:12;;;;;;;9.10;4.83;;;8.40;99.90;;;;;;5047240;28;20238;-74
2023/05/19 01:21:59;;;;;;;10.40;4.90;;;8.40;99.90;;;;;;5022299;28;20263;-74
2023/05/19 01:24:26;;;;;;;12.80;5.33;;;8.30;99.90;;;;;;5043767;28;20689;-74
2023/05/19 01:27:20;;;;;;;8.20;5.53;;;8.30;99.90;;;;;;5049638;28;20210;-73
2023/05/19 01:30:09;;;;;;;11.83;5.37;;;8.30;99.90;;;;;;5049751;28;20658;-73
2023/05/19 01:32:39;;;;;;;14.30;5.33;;;8.30;99.90;;;;;;5062611;28;20201;-73
2023/05/19 01:35:08;;;;;;;10.07;5.53;;;8.20;99.90;;;;;;5049038;28;20213;-74
2023/05/19 01:37:37;;;;;;;8.13;4.83;;;8.20;99.90;;;;;;5068057;28;20266;-73
2023/05/19 01:40:06;;;;;;;11.87;5.97;;;8.20;99.90;;;;;;5067553;28;20255;-74
2023/05/19 01:42:36;;;;;;;13.10;5.63;;;8.20;99.90;;;;;;5067777;28;20257;-74
2023/05/19 01:45:05;;;;;;;11.97;5.77;;;8.10;99.90;;;;;;5067964;28;20229;-74
2023/05/19 01:47:37;;;;;;;13.03;5.40;;;8.10;99.90;;;;;;5070136;28;20604;-73
2023/05/19 01:50:04;;;;;;;9.70;5.10;;;8.10;99.90;;;;;;5048111;28;20564;-74
2023/05/19 01:52:31;;;;;;;13.00;5.90;;;8.10;99.90;;;;;;5065886;28;20301;-74
2023/05/19 01:54:58;;;;;;;9.40;5.13;;;8.10;99.90;;;;;;5065820;28;20223;-73
2023/05/19 01:57:47;;;;;;;11.20;5.17;;;8.00;99.90;;;;;;5065871;28;20632;-73
2023/05/19 02:00:34;;;;;;;15.60;5.90;;;8.00;99.90;;;;;;5058932;28;20224;-73
2023/05/19 02:03:06;;;;;;;9.73;5.53;;;8.00;99.90;;;;;;5064694;28;20281;-73
2023/05/19 02:05:55;;;;;;;10.27;5.47;;;8.00;99.90;;;;;;5067919;28;20283;-74
2023/05/19 02:08:42;;;;;;;10.50;5.07;;;8.00;99.90;;;;;;5066177;28;20249;-74
2023/05/19 02:11:24;;;;;;;10.63;5.33;;;8.00;99.90;;;;;;5062686;28;20635;-75
2023/05/19 02:13:55;;;;;;;15.00;5.93;;;7.90;99.90;;;;;;5066999;28;20238;-74
2023/05/19 02:16:27;;;;;;;12.20;5.57;;;7.90;99.90;;;;;;5067226;28;20268;-74
2023/05/19 02:18:55;;;;;;;18.40;6.57;;;7.90;99.90;;;;;;5064143;28;20203;-73
2023/05/19 02:21:21;;;;;;;9.90;5.57;;;7.90;99.90;;;;;;5070033;28;20254;-74
2023/05/19 02:23:49;;;;;;;12.77;5.70;;;7.80;99.90;;;;;;5065172;28;20617;-75
2023/05/19 02:26:16;;;;;;;13.83;5.57;;;7.80;99.90;;;;;;5065695;28;20202;-75
2023/05/19 02:28:43;;;;;;;15.40;5.40;;;7.80;99.90;;;;;;5065384;28;20209;-74
2023/05/19 02:31:10;;;;;;;15.00;6.10;;;7.70;99.90;;;;;;5055476;28;20319;-74
2023/05/19 02:33:36;;;;;;;10.27;5.60;;;7.70;99.90;;;;;;5039059;28;20335;-74
2023/05/19 02:36:04;;;;;;;12.47;5.70;;;7.60;99.90;;;;;;5048301;28;20665;-74
2023/05/19 02:38:31;;;;;;;10.17;5.43;;;7.60;99.90;;;;;;5040015;28;20228;-74
2023/05/19 02:40:58;;;;;;;13.37;5.97;;;7.60;99.90;;;;;;5051124;28;20200;-74
2023/05/19 02:43:24;;;;;;;10.23;5.40;;;7.60;99.90;;;;;;5047060;28;20257;-75
2023/05/19 02:45:51;;;;;;;15.47;5.93;;;7.60;99.90;;;;;;5046445;28;20226;-73
2023/05/19 02:48:18;;;;;;;15.70;6.40;;;7.60;99.90;;;;;;5046760;28;20193;-74
2023/05/19 02:50:45;;;;;;;10.73;6.20;;;7.50;99.90;;;;;;5029384;28;20636;-73
2023/05/19 02:53:11;;;;;;;14.77;6.57;;;7.50;99.90;;;;;;5048153;28;20228;-75
2023/05/19 02:55:38;;;;;;;15.43;5.60;;;7.50;99.90;;;;;;5050581;28;20201;-74
2023/05/19 02:58:05;;;;;;;11.30;6.17;;;7.50;99.90;;;;;;5047727;28;20270;-74
2023/05/19 03:00:32;;;;;;;16.17;6.47;;;7.50;99.90;;;;;;5048943;28;20233;-75
2023/05/19 03:03:01;;;;;;;15.63;5.93;;;7.60;99.90;;;;;;5046671;28;20252;-73
2023/05/19 03:05:31;;;;;;;14.23;5.40;;;7.50;99.90;;;;;;5051607;28;20209;-74
2023/05/19 03:07:58;;;;;;;10.03;5.10;;;7.50;99.90;;;;;;5044406;28;20299;-74
2023/05/19 03:10:25;;;;;;;11.83;6.10;;;7.50;99.90;;;;;;5049990;28;20307;-73
2023/05/19 03:12:51;;;;;;;13.00;6.13;;;7.50;99.90;;;;;;5047150;28;20220;-74
2023/05/19 03:15:19;;;;;;;14.93;5.93;;;7.50;99.90;;;;;;5044895;28;20695;-74
2023/05/19 03:17:46;;;;;;;15.93;6.50;;;7.40;99.90;;;;;;5041156;28;20210;-75
2023/05/19 03:20:14;;;;;;;15.87;6.80;;;7.40;99.90;;;;;;5046727;28;20633;-74
2023/05/19 03:22:41;;;;;;;15.07;6.50;;;7.40;99.90;;;;;;5047342;28;20214;-74
2023/05/19 03:25:08;;;;;;;14.10;6.63;;;7.40;99.90;;;;;;5049015;28;20211;-74
2023/05/19 03:27:35;;;;;;;15.40;7.00;;;7.40;99.90;;;;;;5047311;28;20637;-74
2023/05/19 03:30:02;;;;;;;11.50;6.13;;;7.40;99.90;;;;;;5045734;28;20424;-74
2023/05/19 03:32:32;;;;;;;17.33;6.47;;;7.40;99.90;;;;;;5047747;28;20225;-74
2023/05/19 03:34:59;;;;;;;13.83;6.43;;;7.30;99.90;;;;;;5046946;28;20263;-74
2023/05/19 03:37:26;;;;;;;12.60;6.30;;;7.40;99.90;;;;;;5046455;28;20200;-73
2023/05/19 03:39:53;;;;;;;17.03;6.70;;;7.40;99.90;;;;;;5046250;28;20653;-73
2023/05/19 03:42:19;;;;;;;15.20;6.63;;;7.40;99.90;;;;;;5048462;28;20633;-73
2023/05/19 03:44:46;;;;;;;18.50;6.37;;;7.40;99.90;;;;;;5046590;28;20503;-72
2023/05/19 03:47:13;;;;;;;11.60;5.97;;;7.40;99.90;;;;;;5048390;28;20262;-74
2023/05/19 03:49:40;;;;;;;14.77;6.60;;;7.40;99.90;;;;;;5043541;28;20220;-73
2023/05/19 03:52:06;;;;;;;12.37;5.97;;;7.40;99.90;;;;;;5048435;28;20213;-73
2023/05/19 03:54:33;;;;;;;13.00;6.57;;;7.40;99.90;;;;;;5047272;28;20650;-74
2023/05/19 03:57:01;;;;;;;13.40;6.60;;;7.50;99.90;;;;;;5049996;28;20236;-74
2023/05/19 03:59:27;;;;;;;16.47;6.73;;;7.50;99.90;;;;;;5041375;28;20248;-74
2023/05/19 04:01:56;;;;;;;23.57;7.07;;;7.50;99.90;;;;;;5046046;28;20235;-74
2023/05/19 04:04:23;;;;;;;16.80;7.80;;;7.50;99.90;;;;;;5045258;28;20243;-75
2023/05/19 04:06:50;;;;;;;16.90;7.17;;;7.50;99.90;;;;;;5047045;28;20209;-73
2023/05/19 04:09:18;;;;;;;18.17;6.80;;;7.50;99.90;;;;;;5046095;28;20270;-74
2023/05/19 04:11:45;;;;;;;17.80;6.67;;;7.50;99.90;;;;;;5047743;28;20209;-74
2023/05/19 04:14:11;;;;;;;18.10;7.20;;;7.50;99.90;;;;;;5027575;28;20555;-74
2023/05/19 04:16:39;;;;;;;15.50;6.40;;;7.60;99.90;;;;;;5045357;28;20259;-75
2023/05/19 04:19:06;;;;;;;19.17;7.77;;;7.60;99.90;;;;;;5049193;28;20254;-74
2023/05/19 04:21:32;;;;;;;18.10;7.33;;;7.60;99.90;;;;;;5045507;28;20206;-74
2023/05/19 04:23:59;;;;;;;15.80;6.97;;;7.70;99.90;;;;;;5045237;28;20209;-75
2023/05/19 04:26:29;;;;;;;17.37;7.27;;;7.70;99.90;;;;;;5031544;28;20641;-74
2023/05/19 04:28:56;;;;;;;13.93;6.50;;;7.70;99.90;;;;;;5041914;28;20251;-73
2023/05/19 04:31:23;;;;;;;15.50;7.37;;;7.70;99.90;;;;;;5045926;28;20240;-73
2023/05/19 04:33:52;;;;;;;14.77;6.60;;;7.80;99.90;;;;;;5048841;28;20586;-74
2023/05/19 04:36:20;;;;;;;13.23;7.13;;;8.00;99.90;;;;;;5048319;28;20205;-74
2023/05/19 04:38:47;;;;;;;15.20;6.43;;;7.90;99.90;;;;;;5046785;28;20324;-73
2023/05/19 04:41:15;;;;;;;14.77;7.27;;;8.00;99.90;;;;;;5049604;28;20283;-74
2023/05/19 04:43:43;;;;;;;12.67;6.57;;;8.00;99.90;;;;;;5046309;28;20236;-74
2023/05/19 04:46:11;;;;;;;14.17;6.73;;;8.10;99.90;;;;;;5023628;28;20243;-73
2023/05/19 04:48:39;;;;;;;18.27;6.93;;;8.10;99.90;;;;;;5045436;28;20214;-74
2023/05/19 04:51:06;;;;;;;12.30;6.47;;;8.20;99.90;;;;;;5038703;28;20276;-74
2023/05/19 04:53:33;;;;;;;13.37;6.70;;;8.30;99.90;;;;;;5045374;28;20979;-74
2023/05/19 04:56:01;;;;;;;14.77;6.73;;;8.40;99.90;;;;;;5049157;28;20740;-74
2023/05/19 04:58:27;;;;;;;15.73;6.90;;;8.40;99.90;;;;;;5045303;28;20203;-73
2023/05/19 05:00:54;;;;;;;13.13;7.00;;;8.50;99.90;;;;;;5052381;28;20225;-74
2023/05/19 05:03:25;;;;;;;13.07;6.50;;;8.60;99.90;;;;;;5047409;28;20211;-75
2023/05/19 05:05:52;;;;;;;13.10;6.40;;;8.60;99.90;;;;;;5055663;28;20531;-74
2023/05/19 05:08:22;;;;;;;13.17;6.37;;;8.70;99.90;;;;;;5044219;28;20254;-74
2023/05/19 05:10:51;;;;;;;13.77;6.30;;;8.80;99.90;;;;;;5048788;28;20275;-75
2023/05/19 05:13:22;;;;;;;16.43;6.67;;;8.80;99.90;;;;;;5029827;28;20257;-73
2023/05/19 05:15:51;;;;;;;15.73;7.23;;;8.90;99.90;;;;;;5048026;28;20261;-75
2023/05/19 05:18:18;;;;;;;12.77;6.47;;;8.90;99.90;;;;;;5047270;28;20201;-75
2023/05/19 05:20:45;;;;;;;13.23;6.50;;;9.00;99.90;;;;;;5045152;28;20271;-74
2023/05/19 05:23:15;;;;;;;15.10;7.37;;;9.00;99.90;;;;;;5049873;28;20208;-74
2023/05/19 05:25:43;;;;;;;14.17;6.43;;;9.10;99.90;;;;;;5049137;28;20607;-73
2023/05/19 05:28:10;;;;;;;12.77;6.40;;;9.10;99.90;;;;;;5042011;28;20316;-74
2023/05/19 05:30:37;;;;;;;12.60;6.23;;;9.20;99.90;;;;;;5046830;28;20235;-74
2023/05/19 05:33:05;;;;;;;14.13;6.77;;;9.30;99.90;;;;;;5047326;28;20727;-73
2023/05/19 05:35:32;;;;;;;13.90;7.03;;;9.40;99.90;;;;;;5052791;28;20207;-75
2023/05/19 05:38:00;;;;;;;14.03;7.37;;;9.50;99.90;;;;;;5047077;28;20662;-74
2023/05/19 05:40:27;;;;;;;15.43;6.57;;;9.80;99.90;;;;;;5046924;28;20205;-74
2023/05/19 05:42:54;;;;;;;15.57;7.73;;;10.20;99.90;;;;;;5049005;28;20200;-75
2023/05/19 05:45:24;;;;;;;9.67;6.00;;;10.80;99.90;;;;;;5047263;28;20282;-77
2023/05/19 05:47:51;;;;;;;11.50;6.77;;;11.60;99.90;;;;;;5047954;28;20544;-74
2023/05/19 05:50:18;;;;;;;8.17;5.13;;;12.60;99.90;;;;;;5044080;28;20257;-73
2023/05/19 05:52:46;;;;;;;14.87;6.30;;;13.50;99.90;;;;;;5047854;28;20202;-74
2023/05/19 05:55:16;;;;;;;10.57;5.67;;;14.50;99.90;;;;;;5048812;28;20201;-74
2023/05/19 05:57:43;;;;;;;10.00;4.65;;;15.40;99.90;;;;;;5040808;28;20726;-75
2023/05/19 06:00:14;;;;;;;11.30;5.20;;;16.00;99.90;;;;;;5048378;28;20278;-74
2023/05/19 06:02:43;;;;;;;8.75;5.00;;;16.60;99.90;;;;;;5047938;28;20543;-75
2023/05/19 06:05:11;;;;;;;12.93;5.82;;;16.90;99.90;;;;;;5034847;28;20247;-74
2023/05/19 06:07:38;;;;;;;9.60;5.15;;;17.20;99.90;;;;;;5049066;28;20205;-74
2023/05/19 06:10:07;;;;;;;13.45;6.10;;;17.30;99.90;;;;;;5052221;28;20193;-74
2023/05/19 06:12:34;;;;;;;10.02;5.05;;;17.40;99.90;;;;;;5047505;28;20209;-74
2023/05/19 06:15:04;;;;;;;8.45;5.10;;;17.40;99.90;;;;;;5044809;28;20674;-75
2023/05/19 06:17:34;;;;;;;7.78;5.80;;;17.60;99.90;;;;;;5046969;28;20209;-74
2023/05/19 06:20:07;;;;;;;10.40;5.13;;;17.90;99.90;;;;;;5034333;28;20217;-73
2023/05/19 06:22:34;;;;;;;9.45;4.78;;;18.20;99.90;;;;;;5043761;28;20221;-78
2023/05/19 06:25:02;;;;;;;8.93;5.05;;;18.50;99.90;;;;;;5051714;28;20201;-76
2023/05/19 06:27:29;;;;;;;9.65;5.22;;;18.70;99.90;;;;;;5034139;28;20217;-75
2023/05/19 06:29:59;;;;;;;8.30;5.20;;;18.90;99.90;;;;;;5031537;28;20222;-76
2023/05/19 06:32:28;;;;;;;7.72;5.00;;;18.70;99.90;;;;;;5031398;28;20209;-76
2023/05/19 06:34:55;;;;;;;7.47;4.70;;;19.00;99.90;;;;;;5051553;28;20217;-75
2023/05/19 06:37:22;;;;;;;11.75;5.05;;;19.40;99.90;;;;;;5047781;28;20239;-78
2023/05/19 06:39:52;;;;;;;7.25;4.50;;;19.80;99.90;;;;;;5033314;28;20217;-77
2023/05/19 06:42:21;;;;;;;10.35;4.95;;;20.10;99.90;;;;;;5040548;28;20209;-76
2023/05/19 06:44:49;;;;;;;6.75;4.38;;;20.70;99.90;;;;;;5031095;28;20682;-78
2023/05/19 06:47:19;;;;;;;11.05;4.63;;;21.30;99.90;;;;;;5039095;28;20572;-75
2023/05/19 06:49:49;;;;;;;6.82;4.30;;;22.00;99.90;;;;;;5033563;28;20741;-76
2023/05/19 06:52:16;;;;;;;8.13;4.38;;;22.50;99.90;;;;;;5051343;28;20302;-76
2023/05/19 06:54:43;;;;;;;9.02;4.85;;;22.80;99.90;;;;;;5047395;28;20243;-76
2023/05/19 06:57:10;;;;;;;7.47;4.88;;;23.10;99.90;;;;;;5051477;28;20209;-76
2023/05/19 06:59:39;;;;;;;7.85;4.47;;;23.20;99.90;;;;;;5051505;28;20213;-75
2023/05/19 07:02:06;;;;;;;8.85;4.03;;;23.40;99.90;;;;;;5046330;28;20213;-76
2023/05/19 07:04:34;;;;;;;6.28;4.35;;;23.10;99.90;;;;;;5045386;28;20426;-75
2023/05/19 07:07:01;;;;;;;6.93;4.00;;;23.20;99.90;;;;;;5046890;28;20210;-75
2023/05/19 07:09:28;;;;;;;7.43;4.60;;;23.40;99.90;;;;;;5043369;28;20223;-76
2023/05/19 07:11:56;;;;;;;6.22;4.20;;;23.40;99.90;;;;;;5044313;28;20229;-75
2023/05/19 07:14:24;;;;;;;9.35;4.30;;;23.50;99.90;;;;;;5040959;28;20305;-76
2023/05/19 07:16:51;;;;;;;9.88;4.50;;;24.00;99.90;;;;;;5025809;28;20584;-76
2023/05/19 07:19:18;;;;;;;6.55;4.32;;;24.30;99.90;;;;;;5027199;28;20311;-77
2023/05/19 07:21:46;;;;;;;9.65;4.75;;;24.60;99.90;;;;;;5030606;28;20273;-76
2023/05/19 07:24:13;;;;;;;6.43;4.32;;;24.60;99.90;;;;;;5028172;28;20201;-75
2023/05/19 07:26:41;;;;;;;7.75;4.55;;;24.40;99.90;;;;;;5047039;28;20711;-76
2023/05/19 07:29:09;;;;;;;7.80;4.47;;;23.70;99.90;;;;;;5041759;28;20221;-76
2023/05/19 07:31:36;;;;;;;5.15;4.05;;;23.20;99.90;;;;;;5066460;28;20289;-75
2023/05/19 07:34:03;;;;;;;8.10;4.15;;;22.80;99.90;;;;;;5075872;28;20197;-76
2023/05/19 07:36:30;;;;;;;9.10;4.13;;;22.90;99.90;;;;;;5063896;28;20207;-76
2023/05/19 07:38:57;;;;;;;5.47;3.80;;;23.10;99.90;;;;;;5068569;28;20531;-76
2023/05/19 07:41:25;;;;;;;5.93;3.58;;;23.50;99.90;;;;;;5074081;28;20201;-76
2023/05/19 07:43:52;;;;;;;6.38;3.78;;;23.80;99.90;;;;;;5082809;28;20247;-76
2023/05/19 07:46:22;;;;;;;7.35;3.75;;;24.20;99.90;;;;;;5062514;28;20261;-76
2023/05/19 07:48:49;;;;;;;10.50;3.80;;;24.50;99.90;;;;;;5064019;28;20293;-77
2023/05/19 07:51:16;;;;;;;7.05;3.50;;;24.90;99.80;;;;;;5064033;28;20216;-77
2023/05/19 07:53:43;;;;;;;5.75;4.05;;;25.10;99.10;;;;;;5061485;28;20204;-76
2023/05/19 07:56:09;;;;;;;6.43;3.45;;;24.90;97.10;;;;;;5065351;28;20231;-76
2023/05/19 07:58:36;;;;;;;5.07;3.38;;;24.70;98.40;;;;;;5067417;28;20205;-76
2023/05/19 08:01:03;;;;;;;6.47;3.95;;;24.80;98.20;;;;;;5067428;28;20653;-77
2023/05/19 08:03:30;;;;;;;7.63;3.10;;;24.90;97.50;;;;;;5066061;28;20200;-77
2023/05/19 08:05:57;;;;;;;7.70;3.53;;;24.70;97.10;;;;;;5063192;28;20673;-77
2023/05/19 08:08:24;;;;;;;3.40;2.92;;;24.50;97.00;;;;;;5062941;28;20607;-75
2023/05/19 08:10:51;;;;;;;5.60;3.30;;;24.70;96.90;;;;;;5065210;28;20228;-75
2023/05/19 08:13:18;;;;;;;6.32;3.65;;;24.70;96.30;;;;;;5066288;28;20236;-75
2023/05/19 08:15:44;;;;;;;4.47;2.33;;;24.70;96.40;;;;;;5066187;28;20269;-76
2023/05/19 08:18:11;;;;;;;5.95;2.63;;;24.70;95.60;;;;;;5065843;28;20296;-74
2023/05/19 08:20:38;;;;;;;6.00;2.60;;;24.30;94.40;;;;;;5079279;28;20257;-74
2023/05/19 08:23:05;;;;;;;5.70;2.88;;;23.80;93.80;;;;;;5064231;28;20201;-74
2023/05/19 08:25:32;;;;;;;6.20;2.97;;;23.30;94.20;;;;;;5064493;28;20189;-76
2023/05/19 08:27:58;;;;;;;3.78;2.50;;;23.00;95.00;;;;;;5061830;28;20211;-76
2023/05/19 08:30:25;;;;;;;4.57;2.22;;;23.00;95.80;;;;;;5061141;28;20229;-75
2023/05/19 08:32:52;;;;;;;2.17;1.83;;;23.30;94.50;;;;;;5045008;28;20285;-76
2023/05/19 08:35:19;;;;;;;5.45;2.53;;;23.40;94.70;;;;;;5026984;28;20197;-75
2023/05/19 08:37:46;;;;;;;5.40;2.38;;;23.50;94.80;;;;;;5041376;28;20205;-76
2023/05/19 08:40:16;;;;;;;3.78;2.10;;;23.60;94.40;;;;;;5043813;28;20208;-76
2023/05/19 08:42:46;;;;;;;4.22;2.10;;;23.60;93.30;;;;;;5047450;28;20224;-78
2023/05/19 08:45:13;;;;;;;5.40;2.08;;;23.50;92.90;;;;;;5046952;28;20638;-77
2023/05/19 08:47:41;;;;;;;3.58;2.00;;;23.30;92.40;;;;;;5041884;28;20294;-77
2023/05/19 08:50:11;;;;;;;5.85;2.70;;;23.10;93.00;;;;;;5024112;28;20545;-77
2023/05/19 08:53:02;;;;;;;6.07;2.40;;;22.80;92.90;;;;;;5047898;28;20397;-76
2023/05/19 08:55:35;;;;;;;4.20;2.38;;;22.70;93.40;;;;;;5042345;28;20621;-77
2023/05/19 08:58:03;;;;;;;6.60;2.40;;;22.50;93.30;;;;;;5042916;28;20201;-77
2023/05/19 09:00:31;;;;;;;6.97;2.08;;;22.40;94.00;;;;;;5048578;28;20221;-77
2023/05/19 09:02:59;;;;;;;5.75;2.08;;;22.50;93.90;;;;;;5046333;28;20585;-76
2023/05/19 09:05:45;;;;;;;4.50;2.08;;;22.50;94.00;;;;;;5028308;28;20691;-76
2023/05/19 09:08:12;;;;;;;6.95;4.28;;;22.70;94.40;;;;;;5028139;28;20205;-77
2023/05/19 09:10:39;;;;;;;2.13;1.48;;;22.70;91.90;;;;;;5049111;28;20216;-76
2023/05/19 09:13:06;;;;;;;6.65;2.70;;;22.10;91.20;;;;;;5045404;28;20197;-75
2023/05/19 09:15:35;;;;;;;5.65;2.00;;;21.80;91.20;;;;;;5049265;28;20221;-76
2023/05/19 09:18:11;;;;;;;4.43;1.70;;;21.60;91.40;;;;;;5045696;28;20247;-76
2023/05/19 09:20:44;;;;;;;7.95;2.50;;;21.40;92.30;;;;;;5049036;28;20258;-76
2023/05/19 09:23:13;;;;;;;5.88;2.08;;;21.30;92.40;;;;;;5047939;28;20213;-77
2023/05/19 09:25:53;;;;;;;5.45;2.22;;;21.00;93.00;;;;;;5045309;28;20309;-77
2023/05/19 09:28:28;;;;;;;3.83;2.20;;;20.70;92.50;;;;;;5044385;28;20209;-75
2023/05/19 09:31:05;;;;;;;4.20;2.20;;;20.60;93.90;;;;;;5044687;28;20328;-76
2023/05/19 09:33:38;;;;;;;5.68;2.60;;;20.60;92.90;;;;;;5045486;28;20213;-76
2023/05/19 09:36:07;;;;;;;7.90;2.60;;;20.80;92.60;;;;;;5048971;28;20642;-77
2023/05/19 09:38:35;;;;;;;5.60;2.45;;;21.00;92.40;;;;;;5045293;28;20206;-76
2023/05/19 09:41:02;;;;;;;5.43;2.20;;;21.20;92.60;;;;;;5049430;28;20307;-76
2023/05/19 09:43:30;;;;;;;5.93;2.25;;;21.20;93.20;;;;;;5049043;28;20205;-74
2023/05/19 09:46:05;;;;;;;2.80;1.90;;;21.00;93.30;;;;;;5047526;28;20225;-77
2023/05/19 09:48:33;;;;;;;6.05;1.70;;;21.00;93.60;;;;;;5050120;28;20253;-79
2023/05/19 09:51:01;;;;;;;3.63;1.90;;;21.00;93.10;;;;;;5050762;28;20201;-78
2023/05/19 09:53:32;;;;;;;6.43;2.08;;;21.10;93.20;;;;;;5050923;28;20205;-78
2023/05/19 09:56:02;;;;;;;7.03;2.05;;;21.30;92.70;;;;;;5047015;28;20479;-79
2023/05/19 09:58:33;;;;;;;5.22;2.50;;;21.50;92.80;;;;;;5049994;28;20213;-78
2023/05/19 10:01:02;;;;;;;6.22;2.00;;;21.80;92.20;;;;;;5049534;28;20217;-80
2023/05/19 10:03:31;;;;;;;5.03;2.67;;;21.90;93.00;;;;;;5052221;28;20465;-79
2023/05/19 10:06:00;;;;;;;4.20;2.08;;;22.00;93.20;;;;;;5051280;28;20227;-77
2023/05/19 10:08:29;;;;;;;6.15;2.58;;;21.90;92.50;;;;;;5047168;28;20241;-79
2023/05/19 10:10:56;;;;;;;5.70;2.30;;;21.80;92.10;;;;;;5051141;28;20205;-78
2023/05/19 10:13:24;;;;;;;4.82;2.10;;;21.80;93.00;;;;;;5031609;28;20197;-78
2023/05/19 10:15:52;;;;;;;4.53;2.85;;;21.90;92.60;;;;;;5044575;28;20221;-77
2023/05/19 10:18:26;;;;;;;6.22;2.40;;;22.10;93.30;;;;;;5044540;28;20218;-78
2023/05/19 10:20:53;;;;;;;10.77;3.33;;;22.20;93.10;;;;;;5047929;28;20281;-78
2023/05/19 10:23:21;;;;;;;5.35;2.28;;;22.20;92.60;;;;;;5049971;28;20215;-79
2023/05/19 10:25:51;;;;;;;6.18;2.35;;;22.30;92.90;;;;;;5044650;28;20205;-78
2023/05/19 10:28:22;;;;;;;6.65;2.45;;;22.50;92.60;;;;;;5043665;28;20623;-78
2023/05/19 10:30:52;;;;;;;6.43;2.17;;;22.60;92.30;;;;;;5048461;28;20712;-78
2023/05/19 10:33:27;;;;;;;4.15;2.00;;;22.60;92.30;;;;;;5044006;28;20225;-77
2023/05/19 10:36:24;;;;;;;3.97;2.20;;;22.40;92.20;;;;;;5043169;28;20676;-78
2023/05/19 10:39:04;;;;;;;3.83;2.13;;;22.00;90.80;;;;;;5042951;28;20201;-77
2023/05/19 10:41:52;;;;;;;4.13;1.90;;;21.80;90.60;;;;;;5046922;28;20263;-76
2023/05/19 10:44:43;;;;;;;4.22;2.40;;;21.80;91.40;;;;;;5048350;28;20217;-78
2023/05/19 10:47:10;;;;;;;4.65;2.42;;;21.90;90.40;;;;;;5051851;28;20204;-76
2023/05/19 10:49:48;;;;;;;7.78;2.33;;;21.90;91.50;;;;;;5039033;28;20209;-78
2023/05/19 10:52:24;;;;;;;6.68;2.78;;;21.90;92.20;;;;;;5033896;28;20762;-78
2023/05/19 10:54:53;;;;;;;6.05;2.80;;;21.90;92.00;;;;;;5046339;28;20201;-77
2023/05/19 10:57:27;;;;;;;2.33;2.00;;;22.00;91.80;;;;;;5042774;28;20278;-78
2023/05/19 10:59:55;;;;;;;4.60;2.38;;;22.00;91.40;;;;;;5051424;28;20573;-78
2023/05/19 11:02:40;;;;;;;7.72;2.05;;;22.00;91.40;;;;;;5047136;28;20670;-78
2023/05/19 11:05:15;;;;;;;6.45;2.40;;;22.00;91.60;;;;;;5045360;28;20669;-76
2023/05/19 11:07:43;;;;;;;6.50;2.30;;;22.00;91.80;;;;;;5051312;28;20209;-78
2023/05/19 11:10:11;;;;;;;3.53;2.65;;;22.10;91.40;;;;;;5047261;28;20212;-76
2023/05/19 11:12:44;;;;;;;4.07;2.10;;;22.10;91.30;;;;;;5047214;28;20241;-76
2023/05/19 11:15:15;;;;;;;3.45;2.25;;;22.20;91.40;;;;;;5046695;28;20213;-77
2023/05/19 11:17:47;;;;;;;6.38;2.25;;;22.20;91.70;;;;;;5027021;28;20298;-76
2023/05/19 11:20:28;;;;;;;5.38;2.55;;;22.20;91.80;;;;;;5047163;28;20645;-76
2023/05/19 11:23:16;;;;;;;3.50;2.30;;;22.20;90.30;;;;;;5048350;28;20271;-78
2023/05/19 11:25:48;;;;;;;5.28;2.28;;;22.10;90.40;;;;;;5043816;28;20197;-77
2023/05/19 11:28:18;;;;;;;4.65;2.28;;;22.20;90.80;;;;;;5050121;28;20233;-78
2023/05/19 11:30:50;;;;;;;5.18;1.95;;;22.40;91.90;;;;;;5048777;28;20553;-78
2023/05/19 11:33:18;;;;;;;3.90;1.98;;;22.60;91.40;;;;;;5047224;28;20689;-78
2023/05/19 11:35:50;;;;;;;5.45;2.30;;;22.60;91.90;;;;;;5050820;28;20205;-78
2023/05/19 11:38:18;;;;;;;7.25;2.47;;;22.70;91.70;;;;;;5046391;28;20213;-77
2023/05/19 11:40:46;;;;;;;4.53;2.03;;;22.50;92.00;;;;;;5040732;28;20194;-78
2023/05/19 11:43:13;;;;;;;5.15;2.20;;;22.50;91.40;;;;;;5042881;28;20662;-80
2023/05/19 11:45:41;;;;;;;4.82;2.08;;;22.70;91.60;;;;;;5040240;28;20214;-77
2023/05/19 11:48:12;;;;;;;4.68;2.17;;;22.60;91.10;;;;;;5048846;28;20528;-78
2023/05/19 11:50:42;;;;;;;5.20;2.20;;;22.50;90.20;;;;;;5050601;28;20245;-79
2023/05/19 11:53:13;;;;;;;6.65;2.97;;;22.40;90.20;;;;;;5049701;28;20660;-78
2023/05/19 11:55:43;;;;;;;5.25;2.13;;;22.50;90.20;;;;;;5028991;28;20378;-79
2023/05/19 11:58:11;;;;;;;4.25;2.08;;;22.50;90.40;;;;;;5046068;28;20209;-80
2023/05/19 12:00:39;;;;;;;5.72;2.70;;;22.50;90.50;;;;;;5049936;28;20217;-79
2023/05/19 12:03:08;;;;;;;5.68;2.40;;;22.50;90.10;;;;;;5023474;28;20198;-78
2023/05/19 12:05:38;;;;;;;4.20;2.10;;;22.60;89.70;;;;;;5042992;28;20655;-80
2023/05/19 12:08:10;;;;;;;3.55;2.00;;;22.60;90.30;;;;;;5041997;28;20276;-80
2023/05/19 12:10:41;;;;;;;4.45;2.10;;;22.70;90.80;;;;;;5023212;28;20582;-79
2023/05/19 12:13:11;;;;;;;4.43;2.10;;;22.90;90.70;;;;;;5032240;28;20221;-79
2023/05/19 12:15:38;;;;;;;3.95;2.50;;;22.90;90.70;;;;;;5027281;28;20232;-80
2023/05/19 12:18:05;;;;;;;6.45;2.35;;;22.90;90.40;;;;;;5045473;28;20228;-79
2023/05/19 12:20:36;;;;;;;7.90;2.33;;;23.00;90.70;;;;;;5042947;28;20274;-79
2023/05/19 12:23:03;;;;;;;5.10;2.50;;;23.00;90.50;;;;;;5044253;28;20280;-78
2023/05/19 12:25:30;;;;;;;3.63;2.20;;;23.00;90.40;;;;;;5044863;28;20294;-79
2023/05/19 12:28:01;;;;;;;3.70;2.30;;;23.10;90.50;;;;;;5023711;28;20232;-80
2023/05/19 12:30:30;;;;;;;5.03;2.08;;;23.30;90.40;;;;;;5040181;28;20227;-79
2023/05/19 12:32:57;;;;;;;3.70;2.22;;;23.30;90.30;;;;;;5068068;28;20592;-80
2023/05/19 12:35:29;;;;;;;4.20;2.03;;;23.40;90.20;;;;;;5065861;28;20648;-77
2023/05/19 12:37:56;;;;;;;6.05;2.85;;;23.20;89.90;;;;;;5059139;28;20287;-77
2023/05/19 12:40:24;;;;;;;3.70;2.08;;;23.20;90.40;;;;;;5068255;28;21044;-77
2023/05/19 12:42:57;;;;;;;6.78;2.42;;;23.20;90.10;;;;;;5062953;28;20236;-76
2023/05/19 12:45:26;;;;;;;7.43;2.50;;;23.30;90.80;;;;;;5068642;28;20255;-78
2023/05/19 12:47:53;;;;;;;4.75;2.30;;;23.40;90.40;;;;;;5066951;28;20228;-77
2023/05/19 12:50:20;;;;;;;5.95;2.30;;;23.50;89.90;;;;;;5081864;28;20243;-77
2023/05/19 12:52:52;;;;;;;4.22;2.05;;;23.60;88.40;;;;;;5068632;28;20236;-78
2023/05/19 12:55:19;;;;;;;6.63;2.40;;;23.60;87.70;;;;;;5067473;28;20201;-78
2023/05/19 12:57:55;;;;;;;5.63;2.20;;;23.30;88.00;;;;;;5066204;28;20254;-76
2023/05/19 13:00:27;;;;;;;6.38;2.38;;;23.30;88.60;;;;;;5064865;28;20216;-78